createdAt,value
2022-07-29T00:02:00.140Z,2.05
2022-07-29T00:07:03.584Z,2.05
2022-07-29T00:12:07.627Z,2.00
2022-07-29T00:17:15.426Z,2.20
2022-07-29T00:22:23.040Z,2.33
2022-07-29T00:27:26.500Z,2.15
2022-07-29T00:32:31.347Z,1.85
2022-07-29T00:37:34.848Z,1.85
2022-07-29T00:42:44.869Z,1.92
2022-07-29T00:47:49.907Z,2.05
2022-07-29T00:52:54.629Z,2.70
2022-07-29T00:57:59.305Z,2.42
2022-07-29T01:03:04.613Z,3.38
2022-07-29T01:08:08.774Z,2.53
2022-07-29T01:13:12.923Z,2.20
2022-07-29T01:18:24.274Z,2.50
2022-07-29T01:23:54.603Z,2.72
2022-07-29T01:29:08.203Z,2.22
2022-07-29T01:34:16.304Z,2.20
2022-07-29T01:39:25.871Z,3.03
2022-07-29T01:44:35.175Z,2.70
2022-07-29T01:49:41.392Z,2.10
2022-07-29T01:54:50.046Z,2.70
2022-07-29T01:59:56.447Z,2.25
2022-07-29T02:05:02.483Z,2.30
2022-07-29T02:10:08.741Z,1.90
2022-07-29T02:15:14.408Z,2.40
2022-07-29T02:20:19.314Z,2.40
2022-07-29T02:25:24.976Z,2.55
2022-07-29T02:30:44.547Z,2.20
2022-07-29T02:35:49.502Z,2.40
2022-07-29T02:40:54.711Z,2.63
2022-07-29T02:46:01.862Z,2.10
2022-07-29T02:51:10.848Z,2.15
2022-07-29T02:56:38.693Z,2.30
2022-07-29T03:01:46.115Z,2.08
2022-07-29T03:06:52.934Z,2.15
2022-07-29T03:11:58.060Z,1.92
2022-07-29T03:17:03.158Z,2.10
2022-07-29T03:22:06.623Z,2.05
2022-07-29T03:27:10.000Z,1.70
2022-07-29T03:32:14.771Z,1.90
2022-07-29T03:37:27.542Z,1.67
2022-07-29T03:42:35.193Z,1.73
2022-07-29T03:47:50.903Z,1.73
2022-07-29T03:52:55.674Z,1.63
2022-07-29T03:57:59.611Z,1.70
2022-07-29T04:03:05.978Z,1.60
2022-07-29T04:08:14.118Z,1.65
2022-07-29T04:13:17.473Z,1.50
2022-07-29T04:18:23.153Z,1.50
2022-07-29T04:23:27.532Z,1.50
2022-07-29T04:28:31.079Z,1.40
2022-07-29T04:33:36.049Z,1.88
2022-07-29T04:38:40.211Z,1.40
2022-07-29T04:43:43.581Z,1.50
2022-07-29T04:48:49.350Z,1.83
2022-07-29T04:53:52.783Z,1.60
2022-07-29T04:58:56.150Z,1.77
2022-07-29T05:04:01.812Z,1.65
2022-07-29T05:09:06.955Z,1.70
2022-07-29T05:14:10.328Z,1.73
2022-07-29T05:19:16.673Z,2.05
2022-07-29T05:24:20.308Z,1.60
2022-07-29T05:29:45.019Z,1.55
2022-07-29T05:34:50.919Z,1.60
2022-07-29T05:39:57.089Z,1.85
2022-07-29T05:45:00.958Z,1.77
2022-07-29T05:50:06.832Z,1.52
2022-07-29T05:55:11.058Z,1.60
2022-07-29T06:00:15.176Z,1.90
2022-07-29T06:05:20.140Z,1.85
2022-07-29T06:10:23.973Z,1.73
2022-07-29T06:15:30.278Z,1.50
2022-07-29T06:20:35.225Z,1.50
2022-07-29T06:25:38.769Z,1.50
2022-07-29T06:30:42.571Z,1.52
2022-07-29T06:35:53.567Z,1.40
2022-07-29T06:41:05.048Z,1.50
2022-07-29T06:46:11.909Z,1.75
2022-07-29T06:51:22.692Z,1.60
2022-07-29T06:56:27.011Z,1.55
2022-07-29T07:01:30.477Z,1.90
2022-07-29T07:06:35.582Z,2.60
2022-07-29T07:11:39.018Z,1.70
2022-07-29T07:16:42.641Z,1.85
2022-07-29T07:21:47.563Z,1.70
2022-07-29T07:26:51.011Z,1.70
2022-07-29T07:31:58.919Z,1.50
2022-07-29T07:37:05.955Z,1.53
2022-07-29T07:42:11.487Z,1.50
2022-07-29T07:47:15.158Z,1.20
2022-07-29T07:52:22.128Z,1.50
2022-07-29T07:57:25.676Z,1.40
2022-07-29T08:02:29.554Z,1.30
2022-07-29T08:07:34.888Z,1.52
2022-07-29T08:12:38.411Z,1.50
2022-07-29T08:17:42.686Z,1.20
2022-07-29T08:22:48.149Z,1.30
2022-07-29T08:27:51.723Z,1.20
2022-07-29T08:32:56.129Z,1.38
2022-07-29T08:38:01.541Z,1.02
2022-07-29T08:43:09.987Z,1.20
2022-07-29T08:48:14.519Z,1.00
2022-07-29T08:53:21.070Z,0.90
2022-07-29T08:58:25.783Z,1.17
2022-07-29T09:03:33.531Z,1.00
2022-07-29T09:08:38.571Z,0.82
2022-07-29T09:13:42.227Z,1.10
2022-07-29T09:18:47.251Z,0.95
2022-07-29T09:24:09.288Z,0.85
2022-07-29T09:29:15.111Z,0.95
2022-07-29T09:34:23.634Z,0.90
2022-07-29T09:39:33.133Z,1.20
2022-07-29T09:44:51.138Z,1.05
2022-07-29T09:49:59.105Z,0.98
2022-07-29T09:55:09.792Z,1.98
2022-07-29T10:00:16.965Z,1.00
2022-07-29T10:05:23.422Z,0.98
2022-07-29T10:10:30.116Z,1.10
2022-07-29T10:15:38.182Z,0.80
2022-07-29T10:20:42.363Z,0.80
2022-07-29T10:25:47.922Z,1.00
2022-07-29T10:30:54.138Z,0.98
2022-07-29T10:36:07.446Z,0.90
2022-07-29T10:41:44.413Z,0.88
2022-07-29T10:46:49.154Z,1.02
2022-07-29T10:52:06.928Z,1.10
2022-07-29T10:57:25.916Z,0.90
2022-07-29T11:02:50.117Z,1.02
2022-07-29T11:08:21.264Z,0.93
2022-07-29T11:13:52.571Z,0.95
2022-07-29T11:19:26.421Z,1.50
2022-07-29T11:24:35.618Z,0.90
2022-07-29T11:29:49.860Z,1.10
2022-07-29T11:35:17.732Z,1.08
2022-07-29T11:40:23.133Z,1.00
2022-07-29T11:45:48.441Z,1.00
2022-07-29T11:50:52.478Z,0.90
2022-07-29T11:55:58.375Z,1.10
2022-07-29T12:01:04.298Z,0.95
2022-07-29T12:06:17.997Z,0.90
2022-07-29T12:11:23.411Z,1.05
2022-07-29T12:16:37.120Z,1.10
2022-07-29T12:21:56.497Z,1.00
2022-07-29T12:27:02.400Z,1.10
2022-07-29T12:32:15.056Z,1.10
2022-07-29T12:37:35.738Z,0.85
2022-07-29T12:43:10.628Z,1.15
2022-07-29T12:48:16.179Z,0.80
2022-07-29T12:53:19.622Z,0.80
2022-07-29T12:58:30.926Z,1.10
2022-07-29T13:03:57.132Z,1.30
2022-07-29T13:09:09.768Z,1.10
2022-07-29T13:14:14.680Z,1.10
2022-07-29T13:19:19.414Z,1.10
2022-07-29T13:24:23.356Z,1.10
2022-07-29T13:29:31.363Z,1.00
2022-07-29T13:34:36.414Z,1.30
2022-07-29T13:39:40.143Z,1.08
2022-07-29T13:49:48.452Z,1.17
2022-07-29T13:54:52.146Z,1.00
2022-07-29T14:05:01.174Z,1.00
2022-07-29T14:10:08.730Z,1.08
2022-07-29T14:15:12.281Z,1.20
2022-07-29T14:20:17.739Z,1.08
2022-07-29T14:25:21.184Z,1.08
2022-07-29T14:30:26.972Z,1.13
2022-07-29T14:35:31.798Z,1.05
2022-07-29T14:40:35.393Z,1.10
2022-07-29T14:45:38.769Z,1.00
2022-07-29T14:50:43.634Z,1.10
2022-07-29T14:55:47.499Z,1.20
2022-07-29T15:05:55.761Z,1.10
2022-07-29T15:11:00.496Z,1.25
2022-07-29T15:16:04.175Z,1.17
2022-07-29T15:21:09.543Z,1.58
2022-07-29T15:26:13.042Z,1.35
2022-07-29T15:31:16.479Z,1.50
2022-07-29T15:36:50.209Z,1.80
2022-07-29T15:41:45.125Z,1.70
2022-07-29T15:47:07.519Z,1.98
2022-07-29T15:52:12.790Z,2.20
2022-07-29T15:57:16.292Z,2.00
2022-07-29T16:02:19.800Z,1.80
2022-07-29T16:07:25.427Z,1.80
2022-07-29T16:12:34.876Z,1.50
2022-07-29T16:17:38.961Z,1.70
2022-07-29T16:22:43.939Z,1.40
2022-07-29T16:27:47.368Z,1.80
2022-07-29T16:32:50.713Z,1.90
2022-07-29T16:37:55.145Z,1.77
2022-07-29T16:42:58.447Z,1.83
2022-07-29T16:48:02.724Z,1.93
2022-07-29T16:53:08.683Z,1.60
2022-07-29T16:58:13.431Z,1.50
2022-07-29T17:03:16.767Z,1.45
2022-07-29T17:08:21.481Z,1.47
2022-07-29T17:13:24.904Z,1.52
2022-07-29T17:18:28.395Z,1.30
2022-07-29T17:23:33.094Z,1.70
2022-07-29T17:28:36.736Z,1.80
2022-07-29T17:33:40.035Z,2.65
2022-07-29T17:38:44.903Z,2.00
2022-07-29T17:43:48.444Z,1.70
2022-07-29T17:48:52.294Z,1.70
2022-07-29T17:53:58.311Z,1.63
2022-07-29T17:59:06.640Z,1.92
2022-07-29T18:04:10.341Z,2.00
2022-07-29T18:09:15.093Z,2.08
2022-07-29T18:14:18.406Z,2.10
2022-07-29T18:19:21.947Z,2.20
2022-07-29T18:24:29.184Z,2.03
2022-07-29T18:29:32.678Z,2.00
2022-07-29T18:34:35.985Z,2.00
2022-07-29T18:39:40.704Z,1.60
2022-07-29T18:44:49.140Z,1.70
2022-07-29T18:49:52.717Z,1.45
2022-07-29T18:54:57.482Z,1.70
2022-07-29T19:00:00.906Z,1.60
2022-07-29T19:05:04.302Z,1.80
2022-07-29T19:10:10.228Z,2.33
2022-07-29T19:15:19.993Z,1.90
2022-07-29T19:20:24.169Z,1.85
2022-07-29T19:25:28.979Z,1.70
2022-07-29T19:30:33.496Z,1.83
2022-07-29T19:35:36.793Z,1.53
2022-07-29T19:40:41.738Z,1.50
2022-07-29T19:45:46.199Z,1.65
2022-07-29T19:55:54.110Z,1.60
2022-07-29T20:00:57.548Z,1.58
2022-07-29T20:06:00.859Z,1.88
2022-07-29T20:11:06.039Z,1.40
2022-07-29T20:16:09.495Z,1.48
2022-07-29T20:21:12.946Z,1.40
2022-07-29T20:26:18.763Z,1.42
2022-07-29T20:31:22.256Z,1.88
2022-07-29T20:36:25.662Z,1.73
2022-07-29T20:41:30.420Z,1.60
2022-07-29T20:46:34.273Z,1.60
2022-07-29T20:51:43.525Z,1.77
2022-07-29T20:56:48.844Z,1.40
2022-07-29T21:01:52.252Z,1.40
2022-07-29T21:06:55.595Z,1.40
2022-07-29T21:12:00.814Z,1.40
2022-07-29T21:17:06.153Z,1.40
2022-07-29T21:22:09.724Z,1.45
2022-07-29T21:27:31.938Z,1.50
2022-07-29T21:32:35.338Z,1.55
2022-07-29T21:37:38.760Z,1.45
2022-07-29T21:42:43.634Z,1.60
2022-07-29T21:47:49.122Z,1.60
2022-07-29T21:52:52.431Z,1.40
2022-07-29T21:57:57.758Z,1.40
2022-07-29T22:03:02.028Z,1.40
2022-07-29T22:08:05.674Z,1.55
2022-07-29T22:13:10.444Z,1.40
2022-07-29T22:18:13.768Z,1.70
2022-07-29T22:23:24.186Z,1.70
2022-07-29T22:28:29.010Z,1.70
2022-07-29T22:33:32.303Z,1.60
2022-07-29T22:38:35.818Z,1.50
2022-07-29T22:43:41.298Z,1.50
2022-07-29T22:48:44.726Z,1.70
2022-07-29T22:53:48.165Z,1.58
2022-07-29T22:58:55.452Z,1.70
2022-07-29T23:03:58.846Z,1.80
2022-07-29T23:09:02.209Z,1.80
2022-07-29T23:14:06.911Z,2.00
2022-07-29T23:19:12.976Z,1.52
2022-07-29T23:24:16.380Z,1.60
2022-07-29T23:29:21.109Z,1.67
2022-07-29T23:34:24.409Z,1.52
2022-07-29T23:39:27.739Z,1.50
2022-07-29T23:44:32.439Z,1.70
2022-07-29T23:49:35.969Z,1.73
2022-07-29T23:54:39.287Z,1.50
2022-07-29T23:59:44.160Z,1.52
